sensor_id;sensor_type;location;lat;lon;timestamp;P1;durP1;ratioP1;P2;durP2;ratioP2
74042;SDS011;62384;53.600;10.040;2022-07-30T18:33:11;7.43;;;3.70;;
74042;SDS011;62384;53.600;10.040;2022-07-30T18:35:36;7.18;;;3.75;;
74042;SDS011;62384;53.600;10.040;2022-07-30T18:38:07;7.53;;;3.92;;
74042;SDS011;62384;53.600;10.040;2022-07-30T18:40:38;4.57;;;3.28;;
74042;SDS011;62384;53.600;10.040;2022-07-30T18:43:03;5.75;;;3.08;;
74042;SDS011;62384;53.600;10.040;2022-07-30T18:45:29;7.30;;;3.85;;
74042;SDS011;62384;53.600;10.040;2022-07-30T18:47:54;7.05;;;3.90;;
74042;SDS011;62384;53.600;10.040;2022-07-30T18:50:20;6.60;;;3.92;;
74042;SDS011;62384;53.600;10.040;2022-07-30T18:52:47;6.57;;;3.72;;
74042;SDS011;62384;53.600;10.040;2022-07-30T18:55:13;5.85;;;3.60;;
74042;SDS011;62384;53.600;10.040;2022-07-30T18:57:41;8.75;;;3.90;;
74042;SDS011;62384;53.600;10.040;2022-07-30T19:00:11;6.00;;;4.30;;
74042;SDS011;62384;53.600;10.040;2022-07-30T19:02:46;7.63;;;3.05;;
74042;SDS011;62384;53.600;10.040;2022-07-30T19:05:54;4.65;;;3.38;;
74042;SDS011;62384;53.600;10.040;2022-07-30T19:08:20;4.40;;;3.50;;
74042;SDS011;62384;53.600;10.040;2022-07-30T19:10:45;6.85;;;3.47;;
74042;SDS011;62384;53.600;10.040;2022-07-30T19:13:13;5.78;;;4.07;;
74042;SDS011;62384;53.600;10.040;2022-07-30T19:15:39;5.72;;;3.35;;
74042;SDS011;62384;53.600;10.040;2022-07-30T19:18:04;7.45;;;3.47;;
74042;SDS011;62384;53.600;10.040;2022-07-30T19:20:30;6.38;;;3.47;;
74042;SDS011;62384;53.600;10.040;2022-07-30T19:22:59;4.90;;;3.13;;
74042;SDS011;62384;53.600;10.040;2022-07-30T19:25:26;4.13;;;3.70;;
74042;SDS011;62384;53.600;10.040;2022-07-30T19:27:52;4.63;;;3.40;;
74042;SDS011;62384;53.600;10.040;2022-07-30T19:30:17;6.60;;;3.13;;
74042;SDS011;62384;53.600;10.040;2022-07-30T19:32:42;6.28;;;2.97;;
74042;SDS011;62384;53.600;10.040;2022-07-30T19:35:08;7.25;;;3.20;;
74042;SDS011;62384;53.600;10.040;2022-07-30T19:37:33;4.47;;;3.03;;
74042;SDS011;62384;53.600;10.040;2022-07-30T19:40:01;4.75;;;2.80;;
74042;SDS011;62384;53.600;10.040;2022-07-30T19:42:27;5.07;;;2.90;;
74042;SDS011;62384;53.600;10.040;2022-07-30T19:44:52;8.50;;;3.03;;
74042;SDS011;62384;53.600;10.040;2022-07-30T19:47:18;8.00;;;3.15;;
74042;SDS011;62384;53.600;10.040;2022-07-30T19:49:49;4.70;;;2.50;;
74042;SDS011;62384;53.600;10.040;2022-07-30T19:52:15;5.85;;;2.85;;
74042;SDS011;62384;53.600;10.040;2022-07-30T19:54:40;7.63;;;3.20;;
74042;SDS011;62384;53.600;10.040;2022-07-30T19:57:06;2.80;;;2.28;;
74042;SDS011;62384;53.600;10.040;2022-07-30T19:59:31;8.23;;;2.67;;
74042;SDS011;62384;53.600;10.040;2022-07-30T20:01:56;5.30;;;3.00;;
74042;SDS011;62384;53.600;10.040;2022-07-30T20:04:21;5.82;;;2.92;;
74042;SDS011;62384;53.600;10.040;2022-07-30T20:06:47;3.47;;;2.65;;
74042;SDS011;62384;53.600;10.040;2022-07-30T20:09:13;5.63;;;3.00;;
74042;SDS011;62384;53.600;10.040;2022-07-30T20:11:42;3.78;;;2.83;;
74042;SDS011;62384;53.600;10.040;2022-07-30T20:14:09;6.55;;;3.88;;
74042;SDS011;62384;53.600;10.040;2022-07-30T20:16:34;5.53;;;3.05;;
74042;SDS011;62384;53.600;10.040;2022-07-30T20:19:05;7.50;;;3.88;;
74042;SDS011;62384;53.600;10.040;2022-07-30T20:21:31;5.88;;;3.70;;
74042;SDS011;62384;53.600;10.040;2022-07-30T20:23:57;8.55;;;3.88;;
74042;SDS011;62384;53.600;10.040;2022-07-30T20:26:23;7.22;;;3.85;;
74042;SDS011;62384;53.600;10.040;2022-07-30T20:28:48;11.13;;;4.68;;
74042;SDS011;62384;53.600;10.040;2022-07-30T20:31:15;8.68;;;3.70;;
74042;SDS011;62384;53.600;10.040;2022-07-30T20:33:41;7.65;;;4.28;;
74042;SDS011;62384;53.600;10.040;2022-07-30T20:36:07;6.35;;;4.28;;
74042;SDS011;62384;53.600;10.040;2022-07-30T20:38:33;8.90;;;5.00;;
74042;SDS011;62384;53.600;10.040;2022-07-30T20:40:59;7.25;;;4.45;;
74042;SDS011;62384;53.600;10.040;2022-07-30T20:43:25;6.88;;;3.88;;
74042;SDS011;62384;53.600;10.040;2022-07-30T20:45:51;5.28;;;3.83;;
74042;SDS011;62384;53.600;10.040;2022-07-30T20:48:17;7.82;;;4.15;;
74042;SDS011;62384;53.600;10.040;2022-07-30T20:50:43;8.52;;;4.22;;
74042;SDS011;62384;53.600;10.040;2022-07-30T20:53:11;7.75;;;4.50;;
74042;SDS011;62384;53.600;10.040;2022-07-30T20:55:37;8.32;;;4.45;;
74042;SDS011;62384;53.600;10.040;2022-07-30T20:58:03;7.72;;;4.53;;
74042;SDS011;62384;53.600;10.040;2022-07-30T21:00:33;8.45;;;4.78;;
74042;SDS011;62384;53.600;10.040;2022-07-30T21:03:00;8.63;;;4.47;;
74042;SDS011;62384;53.600;10.040;2022-07-30T21:05:26;10.48;;;5.35;;
74042;SDS011;62384;53.600;10.040;2022-07-30T21:07:52;8.98;;;5.75;;
74042;SDS011;62384;53.600;10.040;2022-07-30T21:10:18;9.52;;;6.32;;
74042;SDS011;62384;53.600;10.040;2022-07-30T21:12:43;10.45;;;5.78;;
74042;SDS011;62384;53.600;10.040;2022-07-30T21:15:09;12.77;;;7.45;;
74042;SDS011;62384;53.600;10.040;2022-07-30T21:17:37;13.63;;;7.80;;
74042;SDS011;62384;53.600;10.040;2022-07-30T21:20:04;15.50;;;7.60;;
74042;SDS011;62384;53.600;10.040;2022-07-30T21:22:36;16.50;;;8.00;;
74042;SDS011;62384;53.600;10.040;2022-07-30T21:25:03;18.00;;;8.48;;
74042;SDS011;62384;53.600;10.040;2022-07-30T21:27:29;19.27;;;10.50;;
74042;SDS011;62384;53.600;10.040;2022-07-30T21:29:55;18.50;;;10.40;;
74042;SDS011;62384;53.600;10.040;2022-07-30T21:32:21;21.25;;;10.70;;
74042;SDS011;62384;53.600;10.040;2022-07-30T21:34:47;22.02;;;11.88;;
74042;SDS011;62384;53.600;10.040;2022-07-30T21:37:12;20.75;;;13.00;;
74042;SDS011;62384;53.600;10.040;2022-07-30T21:39:38;20.63;;;11.68;;
74042;SDS011;62384;53.600;10.040;2022-07-30T21:42:05;22.15;;;13.18;;
74042;SDS011;62384;53.600;10.040;2022-07-30T21:44:37;24.58;;;13.80;;
74042;SDS011;62384;53.600;10.040;2022-07-30T21:47:03;22.20;;;13.73;;
74042;SDS011;62384;53.600;10.040;2022-07-30T21:49:29;21.70;;;12.00;;
74042;SDS011;62384;53.600;10.040;2022-07-30T21:51:54;27.08;;;13.73;;
74042;SDS011;62384;53.600;10.040;2022-07-30T21:54:20;26.15;;;14.32;;
74042;SDS011;62384;53.600;10.040;2022-07-30T21:56:45;25.65;;;14.60;;
74042;SDS011;62384;53.600;10.040;2022-07-30T21:59:17;24.27;;;14.48;;
74042;SDS011;62384;53.600;10.040;2022-07-30T22:01:43;26.80;;;14.15;;
74042;SDS011;62384;53.600;10.040;2022-07-30T22:04:09;29.88;;;15.35;;
74042;SDS011;62384;53.600;10.040;2022-07-30T22:06:35;26.17;;;14.38;;
74042;SDS011;62384;53.600;10.040;2022-07-30T22:09:07;27.83;;;14.82;;
74042;SDS011;62384;53.600;10.040;2022-07-30T22:11:34;24.52;;;13.27;;
74042;SDS011;62384;53.600;10.040;2022-07-30T22:13:59;24.45;;;12.65;;
74042;SDS011;62384;53.600;10.040;2022-07-30T22:16:31;26.00;;;12.07;;
74042;SDS011;62384;53.600;10.040;2022-07-30T22:18:59;20.95;;;11.32;;
74042;SDS011;62384;53.600;10.040;2022-07-30T22:21:29;21.80;;;11.25;;
74042;SDS011;62384;53.600;10.040;2022-07-30T22:23:55;21.55;;;11.38;;
74042;SDS011;62384;53.600;10.040;2022-07-30T22:26:21;21.10;;;11.98;;
74042;SDS011;62384;53.600;10.040;2022-07-30T22:28:46;20.77;;;10.50;;
74042;SDS011;62384;53.600;10.040;2022-07-30T22:31:12;18.85;;;10.38;;
74042;SDS011;62384;53.600;10.040;2022-07-30T22:33:38;16.65;;;9.60;;
74042;SDS011;62384;53.600;10.040;2022-07-30T22:36:03;15.48;;;8.63;;
74042;SDS011;62384;53.600;10.040;2022-07-30T22:38:30;21.15;;;9.50;;
74042;SDS011;62384;53.600;10.040;2022-07-30T22:40:56;17.77;;;10.35;;
74042;SDS011;62384;53.600;10.040;2022-07-30T22:43:22;19.02;;;9.38;;
74042;SDS011;62384;53.600;10.040;2022-07-30T22:45:47;14.10;;;8.52;;
74042;SDS011;62384;53.600;10.040;2022-07-30T22:48:12;16.65;;;9.85;;
74042;SDS011;62384;53.600;10.040;2022-07-30T22:50:38;27.48;;;9.45;;
74042;SDS011;62384;53.600;10.040;2022-07-30T22:53:04;15.82;;;8.50;;
74042;SDS011;62384;53.600;10.040;2022-07-30T22:55:29;17.02;;;9.63;;
74042;SDS011;62384;53.600;10.040;2022-07-30T22:57:55;19.70;;;9.98;;
74042;SDS011;62384;53.600;10.040;2022-07-30T23:00:21;18.63;;;10.18;;
74042;SDS011;62384;53.600;10.040;2022-07-30T23:02:47;20.52;;;10.18;;
74042;SDS011;62384;53.600;10.040;2022-07-30T23:05:15;22.35;;;10.48;;
74042;SDS011;62384;53.600;10.040;2022-07-30T23:07:41;22.77;;;11.73;;
74042;SDS011;62384;53.600;10.040;2022-07-30T23:10:19;22.98;;;10.48;;
74042;SDS011;62384;53.600;10.040;2022-07-30T23:12:46;21.75;;;9.90;;
74042;SDS011;62384;53.600;10.040;2022-07-30T23:15:12;24.90;;;11.45;;
74042;SDS011;62384;53.600;10.040;2022-07-30T23:17:38;26.40;;;12.82;;
74042;SDS011;62384;53.600;10.040;2022-07-30T23:20:10;23.70;;;11.50;;
74042;SDS011;62384;53.600;10.040;2022-07-30T23:22:37;31.33;;;13.48;;
74042;SDS011;62384;53.600;10.040;2022-07-30T23:25:03;23.50;;;12.10;;
74042;SDS011;62384;53.600;10.040;2022-07-30T23:27:30;20.63;;;11.90;;
74042;SDS011;62384;53.600;10.040;2022-07-30T23:29:57;24.20;;;11.18;;
74042;SDS011;62384;53.600;10.040;2022-07-30T23:32:22;24.35;;;11.48;;
74042;SDS011;62384;53.600;10.040;2022-07-30T23:34:48;23.20;;;10.82;;
74042;SDS011;62384;53.600;10.040;2022-07-30T23:37:13;23.58;;;13.52;;
74042;SDS011;62384;53.600;10.040;2022-07-30T23:39:39;24.85;;;11.55;;
74042;SDS011;62384;53.600;10.040;2022-07-30T23:42:04;29.65;;;11.48;;
74042;SDS011;62384;53.600;10.040;2022-07-30T23:44:29;21.45;;;9.98;;
74042;SDS011;62384;53.600;10.040;2022-07-30T23:46:56;21.58;;;9.82;;
74042;SDS011;62384;53.600;10.040;2022-07-30T23:49:21;19.45;;;11.00;;
74042;SDS011;62384;53.600;10.040;2022-07-30T23:51:48;17.90;;;9.43;;
74042;SDS011;62384;53.600;10.040;2022-07-30T23:54:15;23.13;;;10.90;;
74042;SDS011;62384;53.600;10.040;2022-07-30T23:56:40;24.38;;;10.07;;
74042;SDS011;62384;53.600;10.040;2022-07-30T23:59:05;17.33;;;10.82;;
